Machynlleth, United Kingdom
Current Conditions -  °F | °C
As of 8:50 AM on Sunday 21 Dec 2014 (Local Time) from EGOS Reporting Station
Broken Clouds Broken Clouds  
Wind Chill: 41°   Ceiling: 1500
Heat Index: 46°   Visibility: 6mi
Dew Point: 43°   Wind: 12mph
Humidity: 87%   Direction: 210°SSW
Pressure: 30.21"   Gusts: NA
Location:  52.59°N, 3.85°W
Report Text: EGOS 210850Z AUTO 21010KT 9999 BKN015/// 08/06 Q1023
Loading
Personal Weather Stations






























Interactive Weather Map New forecast layout! Learn more

10-Day Weather Forecast

Advertisements
Track Severe Weather on mobile